Time;durP1;ratioP1;P1;durP2;ratioP2;P2;SDS_P1;SDS_P2;PMS_P1;PMS_P2;Temp;Humidity;BMP_temperature;BMP_pressure;BME280_temperature;BME280_humidity;BME280_pressure;Samples;Min_cycle;Max_cycle;Signal;HPM_P1;HPM_P2
2021/08/13 00:01:04;;;;;;;;;;;18.90;99.90;;;;;;8426131;28;19915;-64
2021/08/13 00:05:05;;;;;;;;;;;18.60;99.90;;;;;;8425956;28;20523;-64
2021/08/13 00:09:09;;;;;;;;;;;18.70;99.90;;;;;;8425720;28;20041;-63
2021/08/13 00:13:09;;;;;;;;;;;18.80;99.90;;;;;;8426136;28;19948;-64
2021/08/13 00:17:10;;;;;;;;;;;18.70;99.90;;;;;;8425768;28;19915;-64
2021/08/13 00:21:11;;;;;;;;;;;18.50;99.90;;;;;;8425696;28;19962;-64
2021/08/13 00:25:11;;;;;;;;;;;18.30;99.90;;;;;;8424237;28;19912;-64
2021/08/13 00:29:11;;;;;;;;;;;18.30;99.90;;;;;;8424784;28;19919;-64
2021/08/13 00:33:12;;;;;;;;;;;18.20;99.90;;;;;;8423462;28;19912;-64
2021/08/13 00:37:12;;;;;;;;;;;18.40;99.90;;;;;;8425302;28;19919;-64
2021/08/13 00:41:13;;;;;;;;;;;18.30;99.90;;;;;;8425196;28;19912;-64
2021/08/13 00:45:13;;;;;;;;;;;18.30;99.90;;;;;;8423778;28;19916;-64
2021/08/13 00:49:14;;;;;;;;;;;18.10;99.90;;;;;;8424983;28;19911;-63
2021/08/13 00:53:14;;;;;;;;;;;17.80;99.90;;;;;;8425151;28;19912;-63
2021/08/13 00:57:15;;;;;;;;;;;18.10;99.90;;;;;;8425100;28;19950;-63
2021/08/13 01:01:16;;;;;;;;;;;18.20;99.90;;;;;;8424999;28;19908;-63
2021/08/13 01:05:16;;;;;;;;;;;18.20;99.90;;;;;;8425125;28;19912;-63
2021/08/13 01:09:17;;;;;;;;;;;18.40;99.90;;;;;;8423507;28;19908;-63
2021/08/13 01:13:28;;;;;;;;;;;18.30;99.90;;;;;;8425152;28;20061;-64
2021/08/13 01:17:33;;;;;;;;;;;17.90;99.90;;;;;;8424964;28;20052;-64
2021/08/13 01:21:42;;;;;;;;;;;17.80;99.90;;;;;;8424878;28;20446;-64
2021/08/13 01:25:44;;;;;;;;;;;18.00;99.90;;;;;;8424412;28;20340;-63
2021/08/13 01:29:47;;;;;;;;;;;17.70;99.90;;;;;;8424045;28;19916;-64
2021/08/13 01:33:50;;;;;;;;;;;17.90;99.90;;;;;;8424586;28;19912;-64
2021/08/13 01:37:53;;;;;;;;;;;18.00;99.90;;;;;;8424065;28;19916;-64
2021/08/13 01:41:53;;;;;;;;;;;17.90;99.90;;;;;;8424436;28;20317;-64
2021/08/13 01:45:55;;;;;;;;;;;18.00;99.90;;;;;;8497785;22;19931;-68
2021/08/13 01:49:56;;;;;;;;;;;18.10;99.90;;;;;;8464046;28;19961;-69
2021/08/13 01:53:57;;;;;;;;;;;18.20;99.90;;;;;;8463979;28;20418;-68
2021/08/13 01:57:58;;;;;;;;;;;18.10;99.90;;;;;;8463745;28;20289;-69
2021/08/13 02:01:59;;;;;;;;;;;18.20;99.90;;;;;;8464096;28;20075;-69
2021/08/13 02:05:59;;;;;;;;;;;18.20;99.90;;;;;;8463628;28;19920;-68
2021/08/13 02:10:00;;;;;;;;;;;18.20;99.90;;;;;;8445092;28;20293;-69
2021/08/13 02:14:00;;;;;;;;;;;18.30;99.90;;;;;;8463932;28;19907;-68
2021/08/13 02:18:12;;;;;;;;;;;18.30;99.90;;;;;;8463891;28;20394;-68
2021/08/13 02:22:12;;;;;;;;;;;18.40;99.90;;;;;;8445149;28;19912;-69
2021/08/13 02:26:13;;;;;;;;;;;18.40;99.90;;;;;;8444962;28;19919;-68
2021/08/13 02:30:13;;;;;;;;;;;18.60;99.90;;;;;;8463112;28;20341;-69
2021/08/13 02:34:14;;;;;;;;;;;18.70;99.90;;;;;;8444987;28;19919;-69
2021/08/13 02:38:19;;;;;;;;;;;18.60;99.90;;;;;;8463034;28;19907;-69
2021/08/13 02:42:32;;;;;;;;;;;18.50;99.90;;;;;;8444752;28;19947;-69
2021/08/13 02:46:39;;;;;;;;;;;18.50;99.90;;;;;;8462173;28;19920;-69
2021/08/13 02:50:40;;;;;;;;;;;18.70;99.90;;;;;;8462057;28;19908;-69
2021/08/13 02:54:41;;;;;;;;;;;18.50;99.90;;;;;;8462367;28;19960;-68
2021/08/13 02:58:55;;;;;;;;;;;18.50;99.90;;;;;;8461148;28;20270;-68
2021/08/13 03:02:56;;;;;;;;;;;18.60;99.90;;;;;;8461943;28;19947;-69
2021/08/13 03:06:58;;;;;;;;;;;18.60;99.90;;;;;;8443701;28;19908;-68
2021/08/13 03:10:59;;;;;;;;;;;18.70;99.90;;;;;;8461481;28;19953;-68
2021/08/13 03:15:00;;;;;;;;;;;18.70;99.90;;;;;;8443443;28;20254;-68
2021/08/13 03:19:01;;;;;;;;;;;18.80;99.90;;;;;;8461488;28;20259;-68
2021/08/13 03:23:01;;;;;;;;;;;18.60;99.90;;;;;;8442535;28;19912;-68
2021/08/13 03:27:02;;;;;;;;;;;18.70;99.90;;;;;;8442699;28;19919;-69
2021/08/13 03:31:03;;;;;;;;;;;18.90;99.90;;;;;;8461024;28;19916;-69
2021/08/13 03:35:04;;;;;;;;;;;19.00;99.90;;;;;;8460582;28;19912;-69
2021/08/13 03:39:05;;;;;;;;;;;18.90;99.90;;;;;;8442450;28;19912;-69
2021/08/13 03:43:06;;;;;;;;;;;18.80;99.90;;;;;;8460400;28;20002;-69
2021/08/13 03:47:06;;;;;;;;;;;18.60;99.90;;;;;;8442930;28;20370;-68
2021/08/13 03:51:07;;;;;;;;;;;18.60;99.90;;;;;;8460111;28;19907;-69
2021/08/13 03:55:07;;;;;;;;;;;18.50;99.90;;;;;;8460295;28;19961;-68
2021/08/13 03:59:08;;;;;;;;;;;18.50;99.90;;;;;;8460189;28;19908;-68
2021/08/13 04:03:08;;;;;;;;;;;18.70;99.90;;;;;;8460648;28;19912;-69
2021/08/13 04:07:09;;;;;;;;;;;18.80;99.90;;;;;;8441793;28;19908;-69
2021/08/13 04:11:09;;;;;;;;;;;19.20;99.90;;;;;;8459664;28;19908;-69
2021/08/13 04:15:10;;;;;;;;;;;19.50;99.90;;;;;;8442017;28;19908;-69
2021/08/13 04:19:11;;;;;;;;;;;19.80;99.90;;;;;;8459752;28;19915;-68
2021/08/13 04:23:11;;;;;;;;;;;20.10;99.90;;;;;;8459345;28;19912;-68
2021/08/13 04:27:11;;;;;;;;;;;20.20;99.90;;;;;;8459646;28;19953;-68
2021/08/13 04:31:12;;;;;;;;;;;20.40;99.90;;;;;;8459524;28;20385;-68
2021/08/13 04:35:12;;;;;;;;;;;20.40;99.90;;;;;;8441501;28;19919;-68
2021/08/13 04:39:13;;;;;;;;;;;20.60;99.90;;;;;;8441095;28;19961;-68
2021/08/13 04:43:13;;;;;;;;;;;20.70;99.90;;;;;;8459172;28;20323;-69
2021/08/13 04:47:14;;;;;;;;;;;20.80;99.90;;;;;;8459202;28;20405;-68
2021/08/13 04:51:14;;;;;;;;;;;20.90;99.90;;;;;;8458553;28;20353;-69
2021/08/13 04:55:22;;;;;;;;;;;21.00;99.90;;;;;;8458916;28;20369;-69
2021/08/13 04:59:22;;;;;;;;;;;21.10;99.90;;;;;;8458714;28;19916;-68
2021/08/13 05:03:23;;;;;;;;;;;21.20;99.90;;;;;;8459123;28;19973;-69
2021/08/13 05:07:23;;;;;;;;;;;21.20;99.90;;;;;;8459016;28;19994;-68
2021/08/13 05:11:24;;;;;;;;;;;21.50;99.90;;;;;;8440518;28;19955;-68
2021/08/13 05:15:24;;;;;;;;;;;21.50;99.90;;;;;;8458493;28;19943;-68
2021/08/13 05:19:25;;;;;;;;;;;21.70;99.90;;;;;;8445544;28;19919;-68
2021/08/13 05:23:25;;;;;;;;;;;21.80;99.90;;;;;;8454160;28;19919;-69
2021/08/13 05:27:26;;;;;;;;;;;22.00;99.90;;;;;;8462338;28;19908;-69
2021/08/13 05:31:26;;;;;;;;;;;22.00;99.90;;;;;;8462643;28;19950;-68
2021/08/13 05:35:27;;;;;;;;;;;22.10;99.90;;;;;;8445035;28;19962;-68
2021/08/13 05:39:27;;;;;;;;;;;22.30;99.90;;;;;;8464663;28;19908;-69
2021/08/13 05:43:28;;;;;;;;;;;22.40;99.90;;;;;;8446614;28;19969;-68
2021/08/13 05:47:29;;;;;;;;;;;22.50;99.90;;;;;;8446629;28;19915;-68
2021/08/13 05:51:29;;;;;;;;;;;22.60;99.90;;;;;;8446126;28;20393;-68
2021/08/13 05:55:30;;;;;;;;;;;22.80;99.90;;;;;;8464549;28;19908;-69
2021/08/13 05:59:30;;;;;;;;;;;23.00;99.90;;;;;;8447707;28;20310;-72
2021/08/13 06:03:31;;;;;;;;;;;23.20;99.90;;;;;;8412240;28;19947;-71
2021/08/13 06:07:31;;;;;;;;;;;23.30;99.90;;;;;;8405959;28;19913;-72
2021/08/13 06:11:32;;;;;;;;;;;23.60;99.90;;;;;;8380544;28;20007;-71
2021/08/13 06:15:32;;;;;;;;;;;23.70;99.90;;;;;;8410389;28;19961;-71
2021/08/13 06:19:33;;;;;;;;;;;23.80;99.90;;;;;;8409831;28;19920;-72
2021/08/13 06:23:33;;;;;;;;;;;23.90;99.90;;;;;;8417821;28;19920;-71
2021/08/13 06:27:34;;;;;;;;;;;24.10;99.90;;;;;;8421760;28;19912;-72
2021/08/13 06:31:34;;;;;;;;;;;24.20;99.90;;;;;;8427923;28;19912;-72
2021/08/13 06:35:35;;;;;;;;;;;24.40;99.90;;;;;;8426860;28;19963;-71
2021/08/13 06:39:35;;;;;;;;;;;24.60;99.90;;;;;;8424749;28;19912;-72
2021/08/13 06:43:36;;;;;;;;;;;24.70;99.90;;;;;;8426908;28;19955;-72
2021/08/13 06:47:37;;;;;;;;;;;24.80;99.90;;;;;;8427480;28;19912;-72
2021/08/13 06:51:37;;;;;;;;;;;24.90;99.90;;;;;;8420490;28;19916;-71
2021/08/13 06:55:38;;;;;;;;;;;24.80;99.90;;;;;;8392817;28;19947;-72
2021/08/13 06:59:38;;;;;;;;;;;24.90;99.90;;;;;;8377623;28;20006;-71
2021/08/13 07:03:39;;;;;;;;;;;24.80;99.90;;;;;;8396704;28;19923;-71
2021/08/13 07:07:39;;;;;;;;;;;24.80;99.90;;;;;;8422974;28;20298;-72
2021/08/13 07:11:39;;;;;;;;;;;25.00;99.90;;;;;;8421749;28;19923;-72
2021/08/13 07:15:40;;;;;;;;;;;25.10;99.90;;;;;;8427528;28;19908;-72
2021/08/13 07:19:40;;;;;;;;;;;25.10;99.90;;;;;;8408718;28;19923;-71
2021/08/13 07:23:41;;;;;;;;;;;25.20;99.90;;;;;;8426434;28;19916;-72
2021/08/13 07:27:41;;;;;;;;;;;25.20;99.90;;;;;;8404812;28;19920;-72
2021/08/13 07:31:42;;;;;;;;;;;25.40;99.90;;;;;;8420418;28;19912;-72
2021/08/13 07:35:42;;;;;;;;;;;25.50;99.90;;;;;;8424917;28;19916;-71
2021/08/13 07:39:43;;;;;;;;;;;25.50;99.90;;;;;;8419939;28;19916;-71
2021/08/13 07:43:43;;;;;;;;;;;25.60;99.90;;;;;;8427194;22;20290;-69
2021/08/13 07:47:44;;;;;;;;;;;25.80;99.90;;;;;;8446616;28;19965;-71
2021/08/13 07:51:44;;;;;;;;;;;26.10;99.90;;;;;;8424814;28;19916;-70
2021/08/13 07:55:45;;;;;;;;;;;26.00;99.90;;;;;;8420658;28;19919;-70
2021/08/13 07:59:45;;;;;;;;;;;26.10;99.90;;;;;;8418408;28;19944;-69
2021/08/13 08:03:46;;;;;;;;;;;26.10;99.90;;;;;;8442834;28;19920;-69
2021/08/13 08:07:46;;;;;;;;;;;26.20;99.90;;;;;;8436670;28;20369;-70
2021/08/13 08:11:47;;;;;;;;;;;26.30;99.90;;;;;;8441205;28;19912;-70
2021/08/13 08:15:47;;;;;;;;;;;26.10;99.90;;;;;;8442197;28;19912;-69
2021/08/13 08:19:48;;;;;;;;;;;26.20;99.90;;;;;;8439598;28;19916;-70
2021/08/13 08:23:48;;;;;;;;;;;26.50;99.90;;;;;;8442222;28;19920;-70
2021/08/13 08:27:49;;;;;;;;;;;26.70;99.90;;;;;;8424423;28;19921;-70
2021/08/13 08:31:49;;;;;;;;;;;26.80;99.90;;;;;;8426837;28;19919;-71
2021/08/13 08:35:50;;;;;;;;;;;26.70;99.90;;;;;;8432662;28;19909;-69
2021/08/13 08:39:50;;;;;;;;;;;26.90;99.90;;;;;;8427000;28;19920;-69
2021/08/13 08:43:51;;;;;;;;;;;27.00;99.90;;;;;;8433212;28;20512;-68
2021/08/13 08:47:53;;;;;;;;;;;27.30;99.90;;;;;;8442780;28;20389;-69
2021/08/13 08:51:54;;;;;;;;;;;27.30;99.90;;;;;;8416037;28;19916;-69
2021/08/13 08:55:56;;;;;;;;;;;27.40;99.90;;;;;;8393116;28;19938;-68
2021/08/13 08:59:57;;;;;;;;;;;27.40;99.90;;;;;;8414169;28;19991;-69
2021/08/13 09:03:58;;;;;;;;;;;27.50;99.90;;;;;;8416326;28;20668;-69
2021/08/13 09:07:58;;;;;;;;;;;27.80;99.90;;;;;;8414456;28;19909;-69
2021/08/13 09:11:59;;;;;;;;;;;27.80;99.90;;;;;;8423067;28;19923;-69
2021/08/13 09:16:10;;;;;;;;;;;27.60;99.90;;;;;;8418952;28;20009;-68
2021/08/13 09:20:10;;;;;;;;;;;27.50;99.90;;;;;;8413639;28;19920;-69
2021/08/13 09:24:12;;;;;;;;;;;27.60;99.90;;;;;;8437448;28;19954;-69
2021/08/13 09:28:13;;;;;;;;;;;27.80;99.90;;;;;;8430069;28;19936;-69
2021/08/13 09:32:24;;;;;;;;;;;27.90;99.90;;;;;;8407239;28;19955;-69
2021/08/13 09:36:25;;;;;;;;;;;28.30;99.90;;;;;;8413881;28;20290;-70
2021/08/13 09:40:26;;;;;;;;;;;28.40;99.90;;;;;;8436703;28;19920;-69
2021/08/13 09:44:34;;;;;;;;;;;28.50;99.90;;;;;;8438860;28;19966;-69
2021/08/13 09:48:34;;;;;;;;;;;28.60;99.90;;;;;;8451636;28;20003;-71
2021/08/13 09:52:35;;;;;;;;;;;28.80;99.90;;;;;;8442597;28;19912;-69
2021/08/13 09:56:36;;;;;;;;;;;28.80;99.90;;;;;;8430663;28;19990;-70
2021/08/13 10:00:41;;;;;;;;;;;28.70;99.90;;;;;;8412165;28;19953;-70
2021/08/13 10:04:42;;;;;;;;;;;28.80;99.90;;;;;;8428312;28;19923;-70
2021/08/13 10:08:45;;;;;;;;;;;29.00;99.90;;;;;;8441429;28;19912;-70
2021/08/13 10:12:46;;;;;;;;;;;29.10;99.90;;;;;;8442692;28;19911;-70
2021/08/13 10:16:46;;;;;;;;;;;29.20;99.90;;;;;;8460053;28;19912;-70
2021/08/13 10:20:48;;;;;;;;;;;29.70;99.90;;;;;;8432354;28;19912;-70
2021/08/13 10:24:50;;;;;;;;;;;30.00;99.90;;;;;;8437299;28;19916;-70
2021/08/13 10:28:51;;;;;;;;;;;30.10;99.90;;;;;;8459288;28;19980;-71
2021/08/13 10:32:52;;;;;;;;;;;30.10;99.90;;;;;;8438662;28;19919;-70
2021/08/13 10:36:53;;;;;;;;;;;29.70;99.90;;;;;;8445180;28;19995;-71
2021/08/13 10:40:54;;;;;;;;;;;29.70;99.90;;;;;;8459186;28;19916;-69
2021/08/13 10:45:00;;;;;;;104.15;98.65;;;30.00;99.90;;;;;;8434864;28;20406;-69
2021/08/13 10:49:01;;;;;;;39.05;36.75;;;30.20;99.90;;;;;;8438373;28;20032;-71
2021/08/13 10:53:01;;;;;;;65.25;61.75;;;30.20;99.90;;;;;;8440171;28;20436;-70
2021/08/13 10:57:03;;;;;;;83.30;78.82;;;30.40;99.90;;;;;;8439962;28;20030;-71
2021/08/13 11:01:18;;;;;;;69.32;65.65;;;30.60;99.90;;;;;;8442389;28;20535;-69
2021/08/13 11:05:54;;;;;;;68.63;64.88;;;30.60;99.90;;;;;;8422272;28;20442;-69
2021/08/13 11:09:54;;;;;;;60.40;57.13;;;31.00;99.90;;;;;;8389912;28;20039;-69
2021/08/13 11:13:55;;;;;;;69.68;66.07;;;31.40;99.90;;;;;;8394724;28;20082;-69
2021/08/13 11:17:55;;;;;;;63.90;60.50;;;31.90;98.50;;;;;;8391301;28;20105;-69
2021/08/13 11:21:59;;;;;;;58.22;52.25;;;32.70;96.50;;;;;;8393684;28;20112;-69
2021/08/13 11:25:59;;;;;;;;;;;33.60;94.20;;;;;;8375107;28;20035;-69
2021/08/13 11:30:00;;;;;;;;;;;34.50;91.10;;;;;;8397719;28;19908;-69
2021/08/13 11:34:00;;;;;;;;;;;34.30;89.00;;;;;;8392595;28;20385;-69
2021/08/13 11:38:01;;;;;;;;;;;35.00;88.00;;;;;;8391921;28;19908;-70
2021/08/13 11:42:08;;;;;;;;;;;36.70;77.10;;;;;;8388923;28;19999;-70
2021/08/13 11:46:09;;;;;;;;;;;37.10;73.40;;;;;;8391983;28;19912;-71
2021/08/13 11:50:10;;;;;;;;;;;37.30;66.30;;;;;;8394257;28;19951;-68
2021/08/13 11:54:23;;;;;;;;;;;37.90;65.10;;;;;;8428118;28;19908;-68
2021/08/13 11:58:25;;;;;;;;;;;38.20;62.20;;;;;;8425158;28;19912;-68
2021/08/13 12:02:27;;;;;;;;;;;37.70;61.50;;;;;;8410277;28;19908;-67
2021/08/13 12:06:27;;;;;;;;;;;38.20;59.40;;;;;;8425714;28;19908;-69
2021/08/13 12:10:30;;;;;;;;;;;39.00;57.60;;;;;;8428431;28;21357;-68
2021/08/13 12:14:31;;;;;;;;;;;40.00;54.70;;;;;;8459208;28;19912;-68
2021/08/13 12:18:33;;;;;;;;;;;39.70;54.40;;;;;;8440826;28;19915;-71
2021/08/13 12:22:34;;;;;;;;;;;39.10;53.80;;;;;;8437592;28;20341;-71
2021/08/13 12:26:35;;;;;;;;;;;38.20;57.80;;;;;;8425681;28;19912;-71
2021/08/13 12:30:36;;;;;;;;;;;37.30;58.70;;;;;;8425309;28;19932;-71
2021/08/13 12:34:37;;;;;;;;;;;37.60;57.30;;;;;;8421738;28;19947;-71
2021/08/13 12:38:38;;;;;;;;;;;38.10;56.90;;;;;;8438510;28;19972;-71
2021/08/13 12:42:43;;;;;;;;;;;39.30;53.60;;;;;;8458065;28;19912;-70
2021/08/13 12:46:43;;;;;;;;;;;39.50;54.80;;;;;;8439385;28;20370;-70
2021/08/13 12:50:44;;;;;;;;;;;39.00;55.10;;;;;;8424596;28;19923;-72
2021/08/13 12:54:45;;;;;;;;;;;40.00;54.20;;;;;;8409548;28;19912;-72
2021/08/13 12:58:46;;;;;;;;;;;40.70;52.10;;;;;;8410379;28;19909;-71
2021/08/13 13:02:46;;;;;;;;;;;40.40;51.30;;;;;;8448474;28;19923;-72
2021/08/13 13:06:50;;;;;;;;;;;40.60;51.30;;;;;;8440058;28;19912;-73
2021/08/13 13:10:50;;;;;;;;;;;40.90;50.80;;;;;;8424608;28;20007;-72
2021/08/13 13:14:53;;;;;;;;;;;39.30;51.90;;;;;;8441178;28;19908;-70
2021/08/13 13:19:13;;;;;;;;;;;39.50;52.30;;;;;;8441077;28;19908;-70
2021/08/13 13:23:15;;;;;;;;;;;39.10;52.70;;;;;;8429805;28;19925;-70
2021/08/13 13:27:15;;;;;;;;;;;39.30;55.80;;;;;;8414257;28;19948;-68
2021/08/13 13:31:17;;;;;;;;;;;41.00;50.70;;;;;;8435174;28;19916;-69
2021/08/13 13:35:24;;;;;;;;;;;42.50;49.00;;;;;;8455979;28;19908;-69
2021/08/13 13:39:24;;;;;;;;;;;43.70;46.00;;;;;;8453923;28;19916;-69
2021/08/13 13:43:25;;;;;;;;;;;42.30;47.20;;;;;;8483339;22;19916;-67
2021/08/13 13:47:25;;;;;;;;;;;40.90;49.30;;;;;;8429240;28;19923;-68
2021/08/13 13:51:26;;;;;;;;;;;41.30;48.40;;;;;;8443022;28;19915;-67
2021/08/13 13:55:27;;;;;;;;;;;41.20;49.80;;;;;;8454008;28;20008;-68
2021/08/13 13:59:27;;;;;;;;;;;43.10;47.00;;;;;;8411848;28;19908;-68
2021/08/13 14:03:27;;;;;;;;;;;42.10;47.70;;;;;;8429268;28;20043;-67
2021/08/13 14:07:28;;;;;;;;;;;41.60;48.70;;;;;;8410592;28;20346;-67
2021/08/13 14:11:28;;;;;;;;;;;42.60;46.60;;;;;;8409021;28;19915;-67
2021/08/13 14:15:30;;;;;;;;;;;42.50;46.30;;;;;;8410421;28;19985;-67
2021/08/13 14:19:31;;;;;;;;;;;43.60;45.40;;;;;;8428895;28;19908;-67
2021/08/13 14:23:31;;;;;;;;;;;42.90;46.00;;;;;;8429499;28;19912;-67
2021/08/13 14:27:32;;;;;;;;;;;42.60;45.90;;;;;;8417808;28;19957;-68
2021/08/13 14:31:32;;;;;;;;;;;43.40;45.40;;;;;;8414812;28;20360;-68
2021/08/13 14:35:35;;;;;;;;;;;45.10;43.30;;;;;;8405281;28;19977;-67
2021/08/13 14:39:36;;;;;;;;;;;45.50;44.70;;;;;;8395344;28;20007;-67
2021/08/13 14:43:39;;;;;;;;;;;45.70;41.70;;;;;;8406519;28;19923;-67
2021/08/13 14:47:40;;;;;;;;;;;45.60;40.70;;;;;;8393776;28;19923;-67
2021/08/13 14:51:41;;;;;;;;;;;44.90;42.20;;;;;;8415245;28;19912;-67
2021/08/13 14:55:41;;;;;;;;;;;44.20;42.60;;;;;;8425853;28;19908;-67
2021/08/13 14:59:42;;;;;;;;;;;43.10;44.40;;;;;;8425939;28;19999;-67
2021/08/13 15:03:42;;;;;;;;;;;40.90;47.40;;;;;;8421241;28;19924;-67
2021/08/13 15:07:43;;;;;;;118.13;111.33;;;38.00;51.80;;;;;;8407650;28;20477;-67
2021/08/13 15:11:43;;;;;;;60.08;56.83;;;35.70;57.40;;;;;;8418458;28;20052;-67
2021/08/13 15:15:44;;;;;;;143.98;136.00;;;33.90;62.40;;;;;;8410331;28;20037;-67
2021/08/13 15:19:44;;;;;;;166.57;157.48;;;32.50;67.00;;;;;;8410399;28;20097;-67
2021/08/13 15:23:45;;;;;;;155.65;147.27;;;31.80;79.40;;;;;;8416753;28;20069;-67
2021/08/13 15:27:46;;;;;;;157.75;149.45;;;31.40;80.90;;;;;;8395022;28;20029;-67
2021/08/13 15:31:47;;;;;;;152.70;144.90;;;30.90;83.10;;;;;;8411012;28;20124;-67
2021/08/13 15:35:47;;;;;;;146.23;138.10;;;30.20;84.20;;;;;;8425971;28;20028;-67
2021/08/13 15:39:48;;;;;;;136.77;129.52;;;29.70;91.10;;;;;;8426173;28;20042;-67
2021/08/13 15:43:48;;;;;;;175.60;166.55;;;29.40;93.50;;;;;;8410248;28;20513;-66
2021/08/13 15:47:49;;;;;;;147.90;139.88;;;29.10;95.80;;;;;;8409451;28;20493;-66
2021/08/13 15:51:50;;;;;;;166.73;157.68;;;28.50;96.80;;;;;;8409708;28;20020;-65
2021/08/13 15:55:51;;;;;;;168.98;159.65;;;28.20;99.90;;;;;;8423711;28;20394;-66
2021/08/13 15:59:51;;;;;;;199.88;189.15;;;28.80;99.90;;;;;;8420808;28;20416;-66
2021/08/13 16:03:52;;;;;;;211.68;200.55;;;31.30;97.20;;;;;;8420839;28;20103;-67
2021/08/13 16:07:59;;;;;;;204.23;193.30;;;31.50;93.90;;;;;;8421735;28;20355;-67
2021/08/13 16:12:00;;;;;;;233.57;220.90;;;32.40;94.60;;;;;;8416901;28;20016;-68
2021/08/13 16:16:00;;;;;;;140.75;133.50;;;34.10;94.30;;;;;;8410773;28;20064;-67
2021/08/13 16:20:01;;;;;;;123.38;116.72;;;33.50;92.90;;;;;;8401372;28;20460;-68
2021/08/13 16:24:01;;;;;;;113.13;107.15;;;32.30;92.90;;;;;;8405910;28;20403;-68
2021/08/13 16:28:02;;;;;;;164.02;155.27;;;31.20;95.00;;;;;;8402144;28;20336;-68
2021/08/13 16:32:03;;;;;;;150.95;142.88;;;30.30;99.90;;;;;;8404812;28;20020;-68
2021/08/13 16:36:05;;;;;;;131.23;124.07;;;29.80;99.90;;;;;;8406399;28;20057;-67
2021/08/13 16:40:06;;;;;;;116.55;110.32;;;29.20;99.90;;;;;;8394902;28;20045;-67
2021/08/13 16:44:07;;;;;;;120.28;113.60;;;28.50;99.90;;;;;;8383176;28;20033;-67
2021/08/13 16:48:08;;;;;;;135.05;127.85;;;28.20;99.90;;;;;;8385677;28;20032;-67
2021/08/13 16:52:12;;;;;;;132.77;125.50;;;27.80;99.90;;;;;;8421068;28;20023;-67
2021/08/13 16:56:13;;;;;;;132.98;125.72;;;27.40;99.90;;;;;;8434318;28;20072;-67
2021/08/13 17:00:14;;;;;;;110.45;104.75;;;27.20;99.90;;;;;;8438873;28;20426;-65
2021/08/13 17:04:14;;;;;;;129.52;122.20;;;26.90;99.90;;;;;;8421498;28;20513;-64
2021/08/13 17:08:15;;;;;;;140.38;132.80;;;25.50;99.90;;;;;;8403335;28;20036;-64
2021/08/13 17:12:16;;;;;;;130.35;123.20;;;24.00;99.90;;;;;;8413387;28;20036;-63
2021/08/13 17:16:16;;;;;;;77.82;73.57;;;23.10;99.90;;;;;;8419567;28;20452;-63
2021/08/13 17:20:17;;;;;;;;;;;21.40;99.90;;;;;;8430829;28;20075;-63
2021/08/13 17:24:17;;;;;;;;;;;21.10;99.90;;;;;;8416392;28;19916;-63
2021/08/13 17:28:18;;;;;;;;;;;21.20;99.90;;;;;;8403540;28;19912;-63
2021/08/13 17:32:19;;;;;;;;;;;21.00;99.90;;;;;;8409635;28;20025;-63
2021/08/13 17:36:20;;;;;;;;;;;21.10;99.90;;;;;;8410001;28;20748;-63
2021/08/13 17:40:20;;;;;;;;;;;21.20;99.90;;;;;;8408267;28;19919;-63
2021/08/13 17:44:22;;;;;;;;;;;21.40;99.90;;;;;;8414594;28;19954;-63
2021/08/13 17:48:22;;;;;;;;;;;21.50;99.90;;;;;;8417618;28;19994;-63
2021/08/13 17:52:23;;;;;;;;;;;21.60;99.90;;;;;;8447617;28;19953;-63
2021/08/13 17:56:23;;;;;;;;;;;21.70;99.90;;;;;;8461034;28;19907;-63
2021/08/13 18:00:25;;;;;;;;;;;21.60;99.90;;;;;;8443202;28;20294;-63
2021/08/13 18:04:26;;;;;;;;;;;21.80;99.90;;;;;;8412701;28;19916;-63
2021/08/13 18:08:26;;;;;;;;;;;22.00;99.90;;;;;;8417886;28;19908;-64
2021/08/13 18:12:27;;;;;;;;;;;21.80;99.90;;;;;;8422854;28;20003;-64
2021/08/13 18:16:29;;;;;;;;;;;22.00;99.90;;;;;;8426749;28;19956;-64
2021/08/13 18:20:29;;;;;;;;;;;22.10;99.90;;;;;;8429225;28;19908;-64
2021/08/13 18:24:30;;;;;;;;;;;21.90;99.90;;;;;;8449232;28;20055;-63
2021/08/13 18:28:30;;;;;;;;;;;21.60;99.90;;;;;;8398977;28;20310;-64
2021/08/13 18:32:31;;;;;;;;;;;21.40;99.90;;;;;;8411398;28;20466;-63
2021/08/13 18:36:32;;;;;;;;;;;21.50;99.90;;;;;;8410646;28;19916;-63
2021/08/13 18:40:33;;;;;;;;;;;21.40;99.90;;;;;;8408024;28;19913;-63
2021/08/13 18:44:34;;;;;;;;;;;21.60;99.90;;;;;;8403988;28;19937;-64
2021/08/13 18:48:34;;;;;;;;;;;21.50;99.90;;;;;;8408009;28;19912;-63
2021/08/13 18:52:35;;;;;;;;;;;21.40;99.90;;;;;;8420594;28;19957;-64
2021/08/13 18:56:36;;;;;;;;;;;21.00;99.90;;;;;;8414063;28;19912;-64
2021/08/13 19:00:36;;;;;;;;;;;21.10;99.90;;;;;;8396283;28;19912;-63
2021/08/13 19:04:37;;;;;;;;;;;21.20;99.90;;;;;;8414391;28;19939;-64
2021/08/13 19:08:37;;;;;;;;;;;21.00;99.90;;;;;;8392857;28;19918;-64
2021/08/13 19:12:38;;;;;;;;;;;21.00;99.90;;;;;;8418267;28;20334;-63
2021/08/13 19:16:38;;;;;;;;;;;20.90;99.90;;;;;;8390789;28;19962;-64
2021/08/13 19:20:39;;;;;;;;;;;20.80;99.90;;;;;;8417904;28;19908;-64
2021/08/13 19:24:39;;;;;;;;;;;20.70;99.90;;;;;;8424916;28;19912;-64
2021/08/13 19:28:39;;;;;;;;;;;20.80;99.90;;;;;;8426885;28;20001;-64
2021/08/13 19:32:40;;;;;;;;;;;20.80;99.90;;;;;;8425217;28;19995;-64
2021/08/13 19:36:41;;;;;;;;;;;20.70;99.90;;;;;;8407845;28;20388;-64
2021/08/13 19:40:42;;;;;;;;;;;20.80;99.90;;;;;;8425201;28;19904;-64
2021/08/13 19:44:42;;;;;;;;;;;20.60;99.90;;;;;;8519593;22;19924;-70
2021/08/13 19:48:43;;;;;;;;;;;20.50;99.90;;;;;;8459374;28;20341;-72
2021/08/13 19:52:43;;;;;;;;;;;20.50;99.90;;;;;;8442398;28;20403;-73
2021/08/13 19:56:44;;;;;;;;;;;20.60;99.90;;;;;;8442501;28;19904;-73
2021/08/13 20:00:46;;;;;;;;;;;20.50;99.90;;;;;;8460387;28;20150;-73
2021/08/13 20:04:47;;;;;;;;;;;20.70;99.90;;;;;;8460662;28;20036;-73
2021/08/13 20:08:47;;;;;;;;;;;20.80;99.90;;;;;;8459744;28;19904;-72
2021/08/13 20:12:49;;;;;;;;;;;20.70;99.90;;;;;;8459821;28;19904;-72
2021/08/13 20:16:50;;;;;;;;;;;20.50;99.90;;;;;;8459646;28;19904;-72
2021/08/13 20:20:50;;;;;;;;;;;20.40;99.90;;;;;;8459297;28;19911;-73
2021/08/13 20:24:50;;;;;;;;;;;20.00;99.90;;;;;;8459404;28;19998;-72
2021/08/13 20:28:51;;;;;;;;;;;20.00;99.90;;;;;;8459186;28;20274;-72
2021/08/13 20:32:51;;;;;;;;;;;20.20;99.90;;;;;;8441032;28;19927;-72
2021/08/13 20:36:52;;;;;;;;;;;20.10;99.90;;;;;;8440782;28;19907;-73
2021/08/13 20:40:53;;;;;;;;;;;20.10;99.90;;;;;;8459058;28;20077;-73
2021/08/13 20:44:53;;;;;;;;;;;20.10;99.90;;;;;;8458912;28;19912;-73
2021/08/13 20:48:54;;;;;;;;;;;19.90;99.90;;;;;;8459273;28;20337;-73
2021/08/13 20:52:54;;;;;;;;;;;19.90;99.90;;;;;;8458900;28;20283;-73
2021/08/13 20:56:55;;;;;;;;;;;19.90;99.90;;;;;;8458990;28;19904;-73
2021/08/13 21:00:56;;;;;;;;;;;20.00;99.90;;;;;;8437673;28;19953;-73
2021/08/13 21:04:57;;;;;;;;;;;19.90;99.90;;;;;;8385620;28;19912;-73
2021/08/13 21:09:00;;;;;;;;;;;19.80;99.90;;;;;;8412206;28;19912;-73
2021/08/13 21:13:00;;;;;;;;;;;19.60;99.90;;;;;;8415554;28;19913;-73
2021/08/13 21:17:01;;;;;;;;;;;19.70;99.90;;;;;;8424361;28;19950;-72
2021/08/13 21:21:01;;;;;;;;;;;19.50;99.90;;;;;;8432527;28;19904;-72
2021/08/13 21:25:02;;;;;;;;;;;19.30;99.90;;;;;;8457414;28;19983;-73
2021/08/13 21:29:03;;;;;;;;;;;19.40;99.90;;;;;;8458326;28;19910;-73
2021/08/13 21:33:04;;;;;;;;;;;19.30;99.90;;;;;;8440221;28;19908;-72
2021/08/13 21:37:04;;;;;;;;;;;19.40;99.90;;;;;;8440120;28;19903;-73
2021/08/13 21:41:04;;;;;;;;;;;19.80;99.90;;;;;;8458267;28;19903;-73
2021/08/13 21:45:05;;;;;;;;;;;19.50;99.90;;;;;;8457943;28;20342;-72
2021/08/13 21:49:06;;;;;;;;;;;19.60;99.90;;;;;;8439464;28;19911;-73
2021/08/13 21:53:06;;;;;;;;;;;19.40;99.90;;;;;;8439502;28;20285;-72
2021/08/13 21:57:07;;;;;;;;;;;19.50;99.90;;;;;;8457823;28;19910;-73
2021/08/13 22:01:07;;;;;;;;;;;19.30;99.90;;;;;;8458121;28;19947;-73
2021/08/13 22:05:08;;;;;;;;;;;19.10;99.90;;;;;;8445913;28;19912;-73
2021/08/13 22:09:08;;;;;;;;;;;19.10;99.90;;;;;;8445750;28;19947;-73
2021/08/13 22:13:09;;;;;;;;;;;19.10;99.90;;;;;;8464236;28;19904;-73
2021/08/13 22:17:09;;;;;;;;;;;19.00;99.90;;;;;;8463788;28;19903;-73
2021/08/13 22:21:10;;;;;;;;;;;18.90;99.90;;;;;;8455838;28;19908;-73
2021/08/13 22:25:11;;;;;;;;;;;19.00;99.90;;;;;;8417756;28;19912;-73
2021/08/13 22:29:11;;;;;;;;;;;19.00;99.90;;;;;;8420194;28;19909;-73
2021/08/13 22:33:12;;;;;;;;;;;18.90;99.90;;;;;;8404133;28;19950;-73
2021/08/13 22:37:13;;;;;;;;;;;18.90;99.90;;;;;;8410175;28;19939;-73
2021/08/13 22:41:13;;;;;;;;;;;18.70;99.90;;;;;;8412245;28;20247;-73
2021/08/13 22:45:14;;;;;;;;;;;18.70;99.90;;;;;;8411731;28;19922;-72
2021/08/13 22:49:14;;;;;;;;;;;18.70;99.90;;;;;;8401016;28;19915;-73
2021/08/13 22:53:18;;;;;;;;;;;18.60;99.90;;;;;;8451683;28;19911;-73